KMTO/MTO METAR and TAF weather

Enter ICAO airport designator
Station Type Date Time Source
KMTO METAR 2021/05/14 22:53 UTC NOAA

KMTO 142253Z AUTO 18009G16KT 10SM CLR 19/02 A3023 RMK AO2 SLP239 T01940017


Station Type Date Time Source
KMTO Decoded METAR 2021/05/14 22:53 UTC NOAA

MATTOON/CHARLESTON COLES CO, IL, United States (KMTO) 39-28N 88-16W 214M
May 14, 2021 - 06:53 PM EDT / 2021.05.14 2253 UTC
Wind: from the S (180 degrees) at 10 MPH (9 KT) gusting to 18 MPH (16 KT):0
Visibility: 10 mile(s):0
Sky conditions: clear
Temperature: 66.9 F (19.4 C)
Dew Point: 35.1 F (1.7 C)
Relative Humidity: 30%
Pressure (altimeter): 30.23 in. Hg (1023 hPa)
ob: KMTO 142253Z AUTO 18009G16KT 10SM CLR 19/02 A3023 RMK AO2 SLP239 T01940017
cycle: 23

Station Type Date Time Source
KMTO TAF UTC NOAA

Error!

Example: see airport list